Sugar Grove, NC

8:07 AM EST on February 28, 2015 (GMT -0500)
Carol & Toby - Buckeye Lake Rec | Change Station
CLOSE
Current Station
Personal Weather Station
Location: Beech Mountain, NC
Elevation: 3619 ft
Nearby Weather Stations
Active Advisory: Special Statement Active Notice: Record Report

Elev 3619 ft 36.22 °N, 81.90 °W | Updated 12 seconds ago

Mostly Cloudy
Mostly Cloudy
23.0 °F
Feels Like 23 °F
N
0.0
Wind Variable Wind from NNE

Today
High -- | Low -- °F
--% Chance of Precip.
Yesterday
High -- | Low -- °F
Precip. -- in
6:59 AM 6:21 PM
Waxing Gibbous, 77% visible
Pressure 30.55 in
Visibility 10.0 miles
Clouds Mostly Cloudy 2500 ft
Windchill 23 °F
Dew Point 19 °F
Humidity 84%
Rainfall 0.00 in
Snow Depth Not available.
UV 0 out of 12
Pollen 3.30 out of 12
Air Quality Not available.
Flu Activity Not available.
METAR KTNB 281255Z AUTO 00000KT 10SM BKN025 M08/M10 A3055 RMK AO2 T10851105

More Conditions Fewer Conditions

Pressure 30.55 in
Visibility 10.0 miles
Clouds Mostly Cloudy 2500 ft
Windchill 23 °F
Dew Point 19 °F
Humidity 84%
Rainfall 0.00 in
Snow Depth Not available.
UV 0 out of 12
Pollen 3.30 out of 12
Air Quality Not available.
Flu Activity Not available.
METAR KTNB 281255Z AUTO 00000KT 10SM BKN025 M08/M10 A3055 RMK AO2 T10851105

More Conditions Fewer Conditions

10-Day Weather Forecast

Almanac

Astronomy

Feb. 28, 2015 Rise Set
Actual Time
Civil Twilight
Nautical Twilight
Astronomical Twilight
Moon
Length of Visible Light
Length of Day
Tomorrow will be .
, % of the Moon is Illuminated

Today's Extremes

State Highs State Lows

Community

WunderPhotos

Upload Photos

1,801,002 photos uploaded!

WunderBlogs® & News

Nearby

Air Quality

  Air Quality AQ Index Pollutant
Not available.

Snow Depth

Station Depth Elevation

Earthquake Activity

City Distance Mag. Time & Date
Minimum magnitude displayed is 2.5.

Coastal Water Temperatures

Place Temperature

Nearby Weather Stations

Special Statement
Statement as of 3:53 AM EST on February 28, 2015


... Patchy black ice possible this morning...

Limited amounts of snow melted Friday thanks to below freezing
temperatures and limited sunshine. However... where any surface
moisture formed... it has likely turned to black ice early this
morning... causing slippery spots on roads... sidewalks and parking
lots.